sensor_id;sensor_type;location;lat;lon;timestamp;pressure;altitude;pressure_sealevel;temperature;humidity
40612;BME280;26317;44.894;20.286;2022-10-16T00:02:12;101231.69;;;15.98;55.29
40612;BME280;26317;44.894;20.286;2022-10-16T00:04:53;101237.91;;;15.98;55.06
40612;BME280;26317;44.894;20.286;2022-10-16T00:07:28;101236.59;;;15.96;55.30
40612;BME280;26317;44.894;20.286;2022-10-16T00:10:06;101231.75;;;15.93;54.91
40612;BME280;26317;44.894;20.286;2022-10-16T00:12:53;101200.63;;;15.72;55.24
40612;BME280;26317;44.894;20.286;2022-10-16T00:15:27;101232.63;;;15.88;55.00
40612;BME280;26317;44.894;20.286;2022-10-16T00:18:31;101243.44;;;15.88;54.96
40612;BME280;26317;44.894;20.286;2022-10-16T00:21:12;101252.81;;;15.96;54.92
40612;BME280;26317;44.894;20.286;2022-10-16T00:23:45;101229.91;;;15.88;54.66
40612;BME280;26317;44.894;20.286;2022-10-16T00:26:20;101244.25;;;15.89;54.61
40612;BME280;26317;44.894;20.286;2022-10-16T00:28:56;101217.44;;;15.69;55.20
40612;BME280;26317;44.894;20.286;2022-10-16T00:31:34;101238.66;;;15.80;54.92
40612;BME280;26317;44.894;20.286;2022-10-16T00:34:10;101247.53;;;15.86;55.16
40612;BME280;26317;44.894;20.286;2022-10-16T00:36:41;101243.22;;;15.85;55.49
40612;BME280;26317;44.894;20.286;2022-10-16T00:39:11;101248.84;;;15.88;55.17
40612;BME280;26317;44.894;20.286;2022-10-16T00:41:46;101249.13;;;15.87;55.72
40612;BME280;26317;44.894;20.286;2022-10-16T00:44:48;101231.88;;;15.83;55.61
40612;BME280;26317;44.894;20.286;2022-10-16T00:47:27;101245.91;;;15.85;55.55
40612;BME280;26317;44.894;20.286;2022-10-16T00:50:02;101261.13;;;15.81;55.31
40612;BME280;26317;44.894;20.286;2022-10-16T00:52:46;101246.03;;;15.75;55.43
40612;BME280;26317;44.894;20.286;2022-10-16T00:55:20;101257.06;;;15.78;55.14
40612;BME280;26317;44.894;20.286;2022-10-16T00:57:59;101255.47;;;15.77;55.34
40612;BME280;26317;44.894;20.286;2022-10-16T01:00:34;101262.25;;;15.75;55.28
40612;BME280;26317;44.894;20.286;2022-10-16T01:03:27;101225.66;;;15.58;55.61
40612;BME280;26317;44.894;20.286;2022-10-16T01:06:25;101260.91;;;15.77;55.47
40612;BME280;26317;44.894;20.286;2022-10-16T01:09:11;101262.56;;;15.73;55.51
40612;BME280;26317;44.894;20.286;2022-10-16T01:12:01;101258.47;;;15.76;55.69
40612;BME280;26317;44.894;20.286;2022-10-16T01:14:58;101260.91;;;15.77;56.00
40612;BME280;26317;44.894;20.286;2022-10-16T01:17:41;101259.22;;;15.81;55.66
40612;BME280;26317;44.894;20.286;2022-10-16T01:20:33;101266.22;;;15.82;55.32
40612;BME280;26317;44.894;20.286;2022-10-16T01:23:31;101273.25;;;15.83;55.78
40612;BME280;26317;44.894;20.286;2022-10-16T01:26:32;101276.25;;;15.82;55.71
40612;BME280;26317;44.894;20.286;2022-10-16T01:29:20;101270.28;;;15.85;55.75
40612;BME280;26317;44.894;20.286;2022-10-16T01:32:01;101262.44;;;15.83;55.92
40612;BME280;26317;44.894;20.286;2022-10-16T01:34:49;101265.91;;;15.89;55.71
40612;BME280;26317;44.894;20.286;2022-10-16T01:37:28;101261.56;;;15.88;55.88
40612;BME280;26317;44.894;20.286;2022-10-16T01:40:23;101262.66;;;15.87;56.19
40612;BME280;26317;44.894;20.286;2022-10-16T01:43:01;101247.28;;;15.82;55.72
40612;BME280;26317;44.894;20.286;2022-10-16T01:45:40;101258.91;;;15.83;55.98
40612;BME280;26317;44.894;20.286;2022-10-16T01:48:16;101262.19;;;15.80;55.83
40612;BME280;26317;44.894;20.286;2022-10-16T01:50:55;101261.16;;;15.76;55.75
40612;BME280;26317;44.894;20.286;2022-10-16T01:53:31;101262.25;;;15.75;55.88
40612;BME280;26317;44.894;20.286;2022-10-16T01:56:11;101261.75;;;15.73;56.35
40612;BME280;26317;44.894;20.286;2022-10-16T01:58:53;101274.75;;;15.71;56.26
40612;BME280;26317;44.894;20.286;2022-10-16T02:01:43;101278.03;;;15.68;56.90
40612;BME280;26317;44.894;20.286;2022-10-16T02:04:21;101282.13;;;15.65;56.71
40612;BME280;26317;44.894;20.286;2022-10-16T02:06:56;101281.84;;;15.61;57.30
40612;BME280;26317;44.894;20.286;2022-10-16T02:09:33;101292.75;;;15.56;57.32
40612;BME280;26317;44.894;20.286;2022-10-16T02:12:25;101279.00;;;15.53;57.41
40612;BME280;26317;44.894;20.286;2022-10-16T02:15:03;101274.41;;;15.48;57.76
40612;BME280;26317;44.894;20.286;2022-10-16T02:17:59;101258.84;;;15.35;57.84
40612;BME280;26317;44.894;20.286;2022-10-16T02:20:40;101272.84;;;15.42;57.62
40612;BME280;26317;44.894;20.286;2022-10-16T02:23:27;101263.69;;;15.38;57.94
40612;BME280;26317;44.894;20.286;2022-10-16T02:26:09;101267.00;;;15.30;57.87
40612;BME280;26317;44.894;20.286;2022-10-16T02:29:02;101274.28;;;15.30;57.92
40612;BME280;26317;44.894;20.286;2022-10-16T02:31:50;101275.97;;;15.26;58.11
40612;BME280;26317;44.894;20.286;2022-10-16T02:34:44;101279.22;;;15.23;58.33
40612;BME280;26317;44.894;20.286;2022-10-16T02:37:22;101286.53;;;15.22;58.25
40612;BME280;26317;44.894;20.286;2022-10-16T02:40:00;101279.50;;;15.21;58.26
40612;BME280;26317;44.894;20.286;2022-10-16T02:42:38;101282.47;;;15.19;58.36
40612;BME280;26317;44.894;20.286;2022-10-16T02:45:11;101293.59;;;15.18;58.71
40612;BME280;26317;44.894;20.286;2022-10-16T02:47:50;101282.31;;;15.11;58.46
40612;BME280;26317;44.894;20.286;2022-10-16T02:50:27;101300.91;;;15.12;58.45
40612;BME280;26317;44.894;20.286;2022-10-16T02:53:03;101298.53;;;15.11;58.74
40612;BME280;26317;44.894;20.286;2022-10-16T02:55:37;101302.31;;;15.10;59.11
40612;BME280;26317;44.894;20.286;2022-10-16T02:58:07;101300.94;;;15.07;58.99
40612;BME280;26317;44.894;20.286;2022-10-16T03:00:46;101301.56;;;14.99;59.35
40612;BME280;26317;44.894;20.286;2022-10-16T03:03:20;101306.44;;;14.97;60.07
40612;BME280;26317;44.894;20.286;2022-10-16T03:05:55;101305.66;;;14.92;60.38
40612;BME280;26317;44.894;20.286;2022-10-16T03:08:29;101305.19;;;14.85;60.92
40612;BME280;26317;44.894;20.286;2022-10-16T03:11:03;101296.06;;;14.76;61.25
40612;BME280;26317;44.894;20.286;2022-10-16T03:13:41;101311.19;;;14.77;61.41
40612;BME280;26317;44.894;20.286;2022-10-16T03:16:14;101320.91;;;14.72;61.77
40612;BME280;26317;44.894;20.286;2022-10-16T03:18:48;101318.25;;;14.67;62.00
40612;BME280;26317;44.894;20.286;2022-10-16T03:21:32;101321.50;;;14.64;61.81
40612;BME280;26317;44.894;20.286;2022-10-16T03:24:13;101310.16;;;14.62;62.33
40612;BME280;26317;44.894;20.286;2022-10-16T03:26:44;101282.78;;;14.40;62.27
40612;BME280;26317;44.894;20.286;2022-10-16T03:29:15;101317.22;;;14.58;62.14
40612;BME280;26317;44.894;20.286;2022-10-16T03:31:52;101319.91;;;14.58;62.36
40612;BME280;26317;44.894;20.286;2022-10-16T03:34:25;101315.66;;;14.47;62.77
40612;BME280;26317;44.894;20.286;2022-10-16T03:36:58;101330.22;;;14.51;62.91
40612;BME280;26317;44.894;20.286;2022-10-16T03:39:29;101334.78;;;14.51;62.70
40612;BME280;26317;44.894;20.286;2022-10-16T03:42:25;101331.56;;;14.49;62.33
40612;BME280;26317;44.894;20.286;2022-10-16T03:45:00;101332.41;;;14.44;62.57
40612;BME280;26317;44.894;20.286;2022-10-16T03:47:44;101307.88;;;14.25;62.76
40612;BME280;26317;44.894;20.286;2022-10-16T03:50:15;101329.47;;;14.36;63.00
40612;BME280;26317;44.894;20.286;2022-10-16T03:53:12;101335.13;;;14.29;63.66
40612;BME280;26317;44.894;20.286;2022-10-16T03:55:47;101343.50;;;14.27;63.71
40612;BME280;26317;44.894;20.286;2022-10-16T03:58:23;101344.59;;;14.21;63.46
40612;BME280;26317;44.894;20.286;2022-10-16T04:00:57;101338.38;;;14.21;63.80
40612;BME280;26317;44.894;20.286;2022-10-16T04:03:29;101344.59;;;14.16;63.91
40612;BME280;26317;44.894;20.286;2022-10-16T04:06:07;101335.69;;;14.16;64.10
40612;BME280;26317;44.894;20.286;2022-10-16T04:08:45;101340.28;;;14.15;64.54
40612;BME280;26317;44.894;20.286;2022-10-16T04:11:20;101332.47;;;14.14;64.72
40612;BME280;26317;44.894;20.286;2022-10-16T04:13:57;101305.56;;;13.89;64.47
40612;BME280;26317;44.894;20.286;2022-10-16T04:16:31;101340.59;;;14.04;64.76
40612;BME280;26317;44.894;20.286;2022-10-16T04:21:51;101335.75;;;13.96;64.97
40612;BME280;26317;44.894;20.286;2022-10-16T04:24:28;101338.75;;;13.94;65.19
40612;BME280;26317;44.894;20.286;2022-10-16T04:26:59;101334.69;;;13.92;65.35
40612;BME280;26317;44.894;20.286;2022-10-16T04:29:32;101332.00;;;13.87;65.42
40612;BME280;26317;44.894;20.286;2022-10-16T04:32:16;101342.25;;;13.90;65.22
40612;BME280;26317;44.894;20.286;2022-10-16T04:34:50;101341.19;;;13.86;64.97
40612;BME280;26317;44.894;20.286;2022-10-16T04:37:28;101342.25;;;13.79;65.21
40612;BME280;26317;44.894;20.286;2022-10-16T04:40:06;101360.88;;;13.81;65.12
40612;BME280;26317;44.894;20.286;2022-10-16T04:42:40;101355.75;;;13.79;65.56
40612;BME280;26317;44.894;20.286;2022-10-16T04:45:10;101357.13;;;13.77;65.50
40612;BME280;26317;44.894;20.286;2022-10-16T04:47:49;101341.75;;;13.57;65.91
40612;BME280;26317;44.894;20.286;2022-10-16T04:50:25;101361.94;;;13.70;66.25
40612;BME280;26317;44.894;20.286;2022-10-16T04:53:08;101369.22;;;13.69;66.44
40612;BME280;26317;44.894;20.286;2022-10-16T04:55:57;101325.59;;;13.47;66.70
40612;BME280;26317;44.894;20.286;2022-10-16T04:58:30;101363.31;;;13.62;67.32
40612;BME280;26317;44.894;20.286;2022-10-16T05:01:03;101370.06;;;13.60;67.41
40612;BME280;26317;44.894;20.286;2022-10-16T05:03:44;101370.31;;;13.53;67.37
40612;BME280;26317;44.894;20.286;2022-10-16T05:06:16;101375.69;;;13.53;67.37
40612;BME280;26317;44.894;20.286;2022-10-16T05:08:46;101381.63;;;13.50;67.81
40612;BME280;26317;44.894;20.286;2022-10-16T05:11:23;101376.78;;;13.42;67.96
40612;BME280;26317;44.894;20.286;2022-10-16T05:13:56;101344.97;;;13.24;67.88
40612;BME280;26317;44.894;20.286;2022-10-16T05:16:31;101383.25;;;13.46;67.75
40612;BME280;26317;44.894;20.286;2022-10-16T05:19:14;101346.06;;;13.28;67.83
40612;BME280;26317;44.894;20.286;2022-10-16T05:21:51;101380.84;;;13.55;67.59
40612;BME280;26317;44.894;20.286;2022-10-16T05:24:35;101383.00;;;13.68;67.71
40612;BME280;26317;44.894;20.286;2022-10-16T05:27:19;101383.25;;;13.76;66.93
40612;BME280;26317;44.894;20.286;2022-10-16T05:29:54;101365.47;;;13.70;67.01
40612;BME280;26317;44.894;20.286;2022-10-16T05:32:30;101390.50;;;13.86;66.28
40612;BME280;26317;44.894;20.286;2022-10-16T05:35:03;101396.47;;;13.83;66.79
40612;BME280;26317;44.894;20.286;2022-10-16T05:37:41;101401.59;;;13.85;66.44
40612;BME280;26317;44.894;20.286;2022-10-16T05:40:14;101403.47;;;13.84;66.46
40612;BME280;26317;44.894;20.286;2022-10-16T05:43:02;101405.63;;;13.82;67.00
40612;BME280;26317;44.894;20.286;2022-10-16T05:45:53;101420.72;;;13.88;66.55
40612;BME280;26317;44.894;20.286;2022-10-16T05:48:24;101425.84;;;13.95;66.85
40612;BME280;26317;44.894;20.286;2022-10-16T05:50:57;101367.88;;;13.57;67.16
40612;BME280;26317;44.894;20.286;2022-10-16T05:53:43;101438.81;;;13.93;66.99
40612;BME280;26317;44.894;20.286;2022-10-16T05:56:15;101439.63;;;13.93;67.39
40612;BME280;26317;44.894;20.286;2022-10-16T05:58:49;101443.13;;;13.94;67.55
40612;BME280;26317;44.894;20.286;2022-10-16T06:01:24;101441.75;;;13.91;67.37
40612;BME280;26317;44.894;20.286;2022-10-16T06:03:54;101447.16;;;13.91;67.73
40612;BME280;26317;44.894;20.286;2022-10-16T06:06:28;101450.41;;;13.88;67.77
40612;BME280;26317;44.894;20.286;2022-10-16T06:09:04;101452.84;;;13.90;67.96
40612;BME280;26317;44.894;20.286;2022-10-16T06:11:46;101451.19;;;13.83;68.18
40612;BME280;26317;44.894;20.286;2022-10-16T06:14:20;101444.19;;;13.93;68.27
40612;BME280;26317;44.894;20.286;2022-10-16T06:16:53;101459.84;;;14.01;68.31
40612;BME280;26317;44.894;20.286;2022-10-16T06:19:35;101431.25;;;13.85;68.10
40612;BME280;26317;44.894;20.286;2022-10-16T06:22:08;101464.69;;;14.14;68.20
40612;BME280;26317;44.894;20.286;2022-10-16T06:24:42;101458.47;;;14.18;68.72
40612;BME280;26317;44.894;20.286;2022-10-16T06:27:24;101466.84;;;14.27;67.75
40612;BME280;26317;44.894;20.286;2022-10-16T06:30:11;101458.22;;;14.35;67.19
40612;BME280;26317;44.894;20.286;2022-10-16T06:32:45;101470.59;;;14.36;67.04
40612;BME280;26317;44.894;20.286;2022-10-16T06:35:23;101481.38;;;14.46;67.00
40612;BME280;26317;44.894;20.286;2022-10-16T06:38:04;101479.50;;;14.57;67.10
40612;BME280;26317;44.894;20.286;2022-10-16T06:40:37;101480.81;;;14.59;66.69
40612;BME280;26317;44.894;20.286;2022-10-16T06:43:11;101481.59;;;14.70;66.25
40612;BME280;26317;44.894;20.286;2022-10-16T06:45:59;101485.34;;;14.84;66.49
40612;BME280;26317;44.894;20.286;2022-10-16T06:48:31;101483.94;;;14.92;66.11
40612;BME280;26317;44.894;20.286;2022-10-16T06:51:10;101504.44;;;15.03;65.39
40612;BME280;26317;44.894;20.286;2022-10-16T06:53:55;101494.66;;;15.12;65.42
40612;BME280;26317;44.894;20.286;2022-10-16T06:56:41;101507.31;;;15.27;64.12
40612;BME280;26317;44.894;20.286;2022-10-16T06:59:13;101503.22;;;15.34;64.12
40612;BME280;26317;44.894;20.286;2022-10-16T07:02:02;101496.16;;;15.43;63.66
40612;BME280;26317;44.894;20.286;2022-10-16T07:04:42;101500.19;;;15.51;63.86
40612;BME280;26317;44.894;20.286;2022-10-16T07:07:21;101504.19;;;15.58;62.73
40612;BME280;26317;44.894;20.286;2022-10-16T07:09:51;101503.59;;;15.67;63.03
40612;BME280;26317;44.894;20.286;2022-10-16T07:12:29;101507.84;;;15.78;62.44
40612;BME280;26317;44.894;20.286;2022-10-16T07:15:13;101516.19;;;15.86;61.37
40612;BME280;26317;44.894;20.286;2022-10-16T07:17:49;101500.78;;;15.82;61.01
40612;BME280;26317;44.894;20.286;2022-10-16T07:20:20;101524.41;;;16.05;60.70
40612;BME280;26317;44.894;20.286;2022-10-16T07:23:09;101507.59;;;16.08;59.44
40612;BME280;26317;44.894;20.286;2022-10-16T07:25:44;101523.72;;;16.23;58.33
40612;BME280;26317;44.894;20.286;2022-10-16T07:28:25;101528.00;;;16.29;57.35
40612;BME280;26317;44.894;20.286;2022-10-16T07:30:59;101533.91;;;16.36;58.22
40612;BME280;26317;44.894;20.286;2022-10-16T07:33:50;101524.13;;;16.40;57.04
40612;BME280;26317;44.894;20.286;2022-10-16T07:36:25;101527.31;;;16.47;56.40
40612;BME280;26317;44.894;20.286;2022-10-16T07:39:04;101533.19;;;16.54;56.70
40612;BME280;26317;44.894;20.286;2022-10-16T07:41:38;101531.97;;;16.71;57.00
40612;BME280;26317;44.894;20.286;2022-10-16T07:44:15;101535.16;;;16.78;55.97
40612;BME280;26317;44.894;20.286;2022-10-16T07:46:48;101525.84;;;16.84;55.59
40612;BME280;26317;44.894;20.286;2022-10-16T07:49:34;101540.13;;;16.94;55.81
40612;BME280;26317;44.894;20.286;2022-10-16T07:52:05;101538.38;;;17.03;54.95
40612;BME280;26317;44.894;20.286;2022-10-16T07:54:39;101538.03;;;17.10;54.82
40612;BME280;26317;44.894;20.286;2022-10-16T07:57:11;101544.22;;;17.16;54.45
40612;BME280;26317;44.894;20.286;2022-10-16T07:59:46;101539.22;;;17.23;54.32
40612;BME280;26317;44.894;20.286;2022-10-16T08:02:16;101542.97;;;17.27;54.36
40612;BME280;26317;44.894;20.286;2022-10-16T08:04:58;101539.91;;;17.33;53.79
40612;BME280;26317;44.894;20.286;2022-10-16T08:07:44;101552.31;;;17.39;54.41
40612;BME280;26317;44.894;20.286;2022-10-16T08:10:20;101560.06;;;17.46;53.96
40612;BME280;26317;44.894;20.286;2022-10-16T08:12:54;101558.31;;;17.55;53.24
40612;BME280;26317;44.894;20.286;2022-10-16T08:15:26;101530.59;;;17.39;53.66
40612;BME280;26317;44.894;20.286;2022-10-16T08:18:09;101560.19;;;17.60;52.91
40612;BME280;26317;44.894;20.286;2022-10-16T08:20:44;101565.50;;;17.70;53.82
40612;BME280;26317;44.894;20.286;2022-10-16T08:23:14;101556.69;;;17.78;53.09
40612;BME280;26317;44.894;20.286;2022-10-16T08:25:53;101550.44;;;17.77;51.94
40612;BME280;26317;44.894;20.286;2022-10-16T08:28:36;101552.72;;;17.89;52.06
40612;BME280;26317;44.894;20.286;2022-10-16T08:31:10;101559.09;;;17.98;52.76
40612;BME280;26317;44.894;20.286;2022-10-16T08:33:49;101558.50;;;18.01;52.34
40612;BME280;26317;44.894;20.286;2022-10-16T08:36:36;101563.84;;;18.06;51.82
40612;BME280;26317;44.894;20.286;2022-10-16T08:39:08;101555.63;;;18.11;52.32
40612;BME280;26317;44.894;20.286;2022-10-16T08:42:28;101567.41;;;18.20;52.37
40612;BME280;26317;44.894;20.286;2022-10-16T08:45:33;101566.03;;;18.23;51.54
40612;BME280;26317;44.894;20.286;2022-10-16T08:48:11;101547.09;;;18.18;51.12
40612;BME280;26317;44.894;20.286;2022-10-16T08:50:51;101572.81;;;18.39;51.44
40612;BME280;26317;44.894;20.286;2022-10-16T08:53:41;101543.91;;;18.29;51.54
40612;BME280;26317;44.894;20.286;2022-10-16T08:56:25;101554.81;;;18.43;51.12
40612;BME280;26317;44.894;20.286;2022-10-16T08:59:17;101554.53;;;18.45;50.64
40612;BME280;26317;44.894;20.286;2022-10-16T09:01:55;101565.75;;;18.57;51.61
40612;BME280;26317;44.894;20.286;2022-10-16T09:04:58;101540.84;;;18.50;51.86
40612;BME280;26317;44.894;20.286;2022-10-16T09:07:43;101556.50;;;18.71;50.71
40612;BME280;26317;44.894;20.286;2022-10-16T09:10:31;101564.78;;;18.80;50.04
40612;BME280;26317;44.894;20.286;2022-10-16T09:13:17;101574.56;;;18.81;49.81
40612;BME280;26317;44.894;20.286;2022-10-16T09:16:10;101573.84;;;18.89;51.25
40612;BME280;26317;44.894;20.286;2022-10-16T09:18:55;101577.78;;;18.97;50.14
40612;BME280;26317;44.894;20.286;2022-10-16T09:21:43;101569.53;;;19.02;49.24
40612;BME280;26317;44.894;20.286;2022-10-16T09:24:26;101578.91;;;19.09;50.13
40612;BME280;26317;44.894;20.286;2022-10-16T09:27:18;101581.00;;;19.12;50.09
40612;BME280;26317;44.894;20.286;2022-10-16T09:29:51;101589.47;;;19.24;49.07
40612;BME280;26317;44.894;20.286;2022-10-16T09:32:26;101558.66;;;19.15;48.09
40612;BME280;26317;44.894;20.286;2022-10-16T09:35:01;101584.13;;;19.33;48.87
40612;BME280;26317;44.894;20.286;2022-10-16T09:37:39;101581.00;;;19.40;48.48
40612;BME280;26317;44.894;20.286;2022-10-16T09:43:21;101587.25;;;19.54;48.60
40612;BME280;26317;44.894;20.286;2022-10-16T09:45:58;101579.91;;;19.54;48.23
40612;BME280;26317;44.894;20.286;2022-10-16T09:48:43;101569.63;;;19.51;47.90
40612;BME280;26317;44.894;20.286;2022-10-16T09:51:32;101602.66;;;19.72;47.95
40612;BME280;26317;44.894;20.286;2022-10-16T09:54:16;101587.13;;;19.72;48.21
40612;BME280;26317;44.894;20.286;2022-10-16T09:57:05;101582.75;;;19.85;47.60
40612;BME280;26317;44.894;20.286;2022-10-16T09:59:59;101594.66;;;19.89;47.23
40612;BME280;26317;44.894;20.286;2022-10-16T10:02:38;101589.91;;;19.95;47.64
40612;BME280;26317;44.894;20.286;2022-10-16T10:05:23;101596.75;;;19.92;46.67
40612;BME280;26317;44.894;20.286;2022-10-16T10:08:01;101599.25;;;20.02;47.92
40612;BME280;26317;44.894;20.286;2022-10-16T10:10:43;101592.06;;;20.06;47.35
40612;BME280;26317;44.894;20.286;2022-10-16T10:13:18;101594.88;;;20.15;46.79
40612;BME280;26317;44.894;20.286;2022-10-16T10:16:14;101592.31;;;20.18;46.91
40612;BME280;26317;44.894;20.286;2022-10-16T10:19:01;101557.66;;;20.10;47.32
40612;BME280;26317;44.894;20.286;2022-10-16T10:21:45;101595.69;;;20.38;47.13
40612;BME280;26317;44.894;20.286;2022-10-16T10:24:21;101581.25;;;20.37;46.00
40612;BME280;26317;44.894;20.286;2022-10-16T10:27:00;101586.75;;;20.46;45.99
40612;BME280;26317;44.894;20.286;2022-10-16T10:29:51;101581.69;;;20.53;46.70
40612;BME280;26317;44.894;20.286;2022-10-16T10:32:37;101576.91;;;20.58;46.20
40612;BME280;26317;44.894;20.286;2022-10-16T10:35:34;101575.66;;;20.64;45.61
40612;BME280;26317;44.894;20.286;2022-10-16T10:38:32;101573.63;;;20.70;45.08
40612;BME280;26317;44.894;20.286;2022-10-16T10:41:27;101569.44;;;20.73;45.73
40612;BME280;26317;44.894;20.286;2022-10-16T10:44:36;101570.78;;;20.84;45.62
40612;BME280;26317;44.894;20.286;2022-10-16T10:47:11;101578.66;;;20.85;45.81
40612;BME280;26317;44.894;20.286;2022-10-16T10:50:04;101575.78;;;20.90;46.00
40612;BME280;26317;44.894;20.286;2022-10-16T10:53:03;101569.69;;;20.93;46.51
40612;BME280;26317;44.894;20.286;2022-10-16T10:55:43;101574.69;;;21.00;45.40
40612;BME280;26317;44.894;20.286;2022-10-16T10:58:46;101568.28;;;21.04;45.49
40612;BME280;26317;44.894;20.286;2022-10-16T11:01:44;101563.81;;;21.08;46.10
40612;BME280;26317;44.894;20.286;2022-10-16T11:04:55;101558.34;;;21.08;45.47
40612;BME280;26317;44.894;20.286;2022-10-16T11:07:34;101562.28;;;21.16;45.56
40612;BME280;26317;44.894;20.286;2022-10-16T11:10:15;101546.69;;;21.17;44.82
40612;BME280;26317;44.894;20.286;2022-10-16T11:12:58;101555.09;;;21.29;44.84
40612;BME280;26317;44.894;20.286;2022-10-16T11:15:35;101545.94;;;21.33;45.06
40612;BME280;26317;44.894;20.286;2022-10-16T11:18:24;101544.66;;;21.39;45.17
40612;BME280;26317;44.894;20.286;2022-10-16T11:21:09;101536.63;;;21.34;45.20
40612;BME280;26317;44.894;20.286;2022-10-16T11:23:48;101540.97;;;21.44;45.38
40612;BME280;26317;44.894;20.286;2022-10-16T11:26:33;101510.94;;;21.35;45.53
40612;BME280;26317;44.894;20.286;2022-10-16T11:29:26;101540.50;;;21.59;45.45
40612;BME280;26317;44.894;20.286;2022-10-16T11:32:04;101539.56;;;21.64;44.37
40612;BME280;26317;44.894;20.286;2022-10-16T11:34:47;101528.47;;;21.69;45.36
40612;BME280;26317;44.894;20.286;2022-10-16T11:37:43;101539.56;;;21.81;44.66
40612;BME280;26317;44.894;20.286;2022-10-16T11:40:47;101538.59;;;21.85;44.27
40612;BME280;26317;44.894;20.286;2022-10-16T11:43:32;101537.94;;;21.88;44.33
40612;BME280;26317;44.894;20.286;2022-10-16T11:46:22;101530.56;;;21.89;44.40
40612;BME280;26317;44.894;20.286;2022-10-16T11:49:03;101538.13;;;22.00;44.15
40612;BME280;26317;44.894;20.286;2022-10-16T11:51:43;101540.22;;;22.12;43.98
40612;BME280;26317;44.894;20.286;2022-10-16T11:54:31;101541.50;;;22.15;43.16
40612;BME280;26317;44.894;20.286;2022-10-16T11:57:09;101526.56;;;22.21;43.55
40612;BME280;26317;44.894;20.286;2022-10-16T11:59:46;101526.84;;;22.19;43.45
40612;BME280;26317;44.894;20.286;2022-10-16T12:02:49;101531.66;;;22.31;43.62
40612;BME280;26317;44.894;20.286;2022-10-16T12:05:32;101528.44;;;22.37;43.37
40612;BME280;26317;44.894;20.286;2022-10-16T12:08:13;101526.47;;;22.38;43.11
40612;BME280;26317;44.894;20.286;2022-10-16T12:11:20;101533.84;;;22.46;42.63
40612;BME280;26317;44.894;20.286;2022-10-16T12:14:18;101529.38;;;22.50;42.95
40612;BME280;26317;44.894;20.286;2022-10-16T12:17:33;101528.72;;;22.53;42.40
40612;BME280;26317;44.894;20.286;2022-10-16T12:20:25;101531.91;;;22.55;42.07
40612;BME280;26317;44.894;20.286;2022-10-16T12:23:02;101533.19;;;22.58;42.04
40612;BME280;26317;44.894;20.286;2022-10-16T12:25:36;101520.47;;;22.62;42.06
40612;BME280;26317;44.894;20.286;2022-10-16T12:28:30;101523.22;;;22.62;41.86
40612;BME280;26317;44.894;20.286;2022-10-16T12:31:06;101529.94;;;22.64;41.79
40612;BME280;26317;44.894;20.286;2022-10-16T12:33:51;101529.63;;;22.74;41.93
40612;BME280;26317;44.894;20.286;2022-10-16T12:36:37;101528.47;;;22.75;41.82
40612;BME280;26317;44.894;20.286;2022-10-16T12:46:00;101532.88;;;22.97;41.94
40612;BME280;26317;44.894;20.286;2022-10-16T12:48:47;101536.25;;;23.03;41.80
40612;BME280;26317;44.894;20.286;2022-10-16T12:51:51;101482.97;;;22.71;41.10
40612;BME280;26317;44.894;20.286;2022-10-16T12:54:31;101525.63;;;23.01;41.42
40612;BME280;26317;44.894;20.286;2022-10-16T12:57:26;101529.44;;;23.09;41.15
40612;BME280;26317;44.894;20.286;2022-10-16T13:00:15;101528.94;;;23.15;42.68
40612;BME280;26317;44.894;20.286;2022-10-16T13:06:28;101542.44;;;23.20;41.57
40612;BME280;26317;44.894;20.286;2022-10-16T13:09:33;101535.34;;;23.19;40.87
40612;BME280;26317;44.894;20.286;2022-10-16T13:12:46;101541.16;;;23.18;42.41
40612;BME280;26317;44.894;20.286;2022-10-16T13:15:30;101531.34;;;23.17;41.24
40612;BME280;26317;44.894;20.286;2022-10-16T13:18:13;101536.16;;;23.20;41.70
40612;BME280;26317;44.894;20.286;2022-10-16T13:21:16;101534.88;;;23.17;40.71
40612;BME280;26317;44.894;20.286;2022-10-16T13:23:55;101537.28;;;23.19;41.52
40612;BME280;26317;44.894;20.286;2022-10-16T13:26:44;101537.28;;;23.19;41.67
40612;BME280;26317;44.894;20.286;2022-10-16T13:29:18;101536.03;;;23.16;40.83
40612;BME280;26317;44.894;20.286;2022-10-16T13:31:50;101549.53;;;23.13;40.68
40612;BME280;26317;44.894;20.286;2022-10-16T13:34:30;101542.19;;;23.05;40.98
40612;BME280;26317;44.894;20.286;2022-10-16T13:37:21;101540.97;;;22.93;42.37
40612;BME280;26317;44.894;20.286;2022-10-16T13:40:22;101545.81;;;22.88;42.22
40612;BME280;26317;44.894;20.286;2022-10-16T13:43:18;101546.69;;;22.71;41.95
40612;BME280;26317;44.894;20.286;2022-10-16T13:45:58;101540.59;;;22.57;41.77
40612;BME280;26317;44.894;20.286;2022-10-16T13:48:36;101541.09;;;22.51;42.29
40612;BME280;26317;44.894;20.286;2022-10-16T13:51:20;101547.06;;;22.44;42.36
40612;BME280;26317;44.894;20.286;2022-10-16T13:54:13;101541.63;;;22.27;42.81
40612;BME280;26317;44.894;20.286;2022-10-16T13:56:49;101552.72;;;22.22;43.22
40612;BME280;26317;44.894;20.286;2022-10-16T13:59:40;101547.63;;;22.12;43.74
40612;BME280;26317;44.894;20.286;2022-10-16T14:02:25;101553.91;;;22.04;43.35
40612;BME280;26317;44.894;20.286;2022-10-16T14:05:09;101549.38;;;21.90;43.85
40612;BME280;26317;44.894;20.286;2022-10-16T14:07:42;101555.47;;;21.87;44.29
40612;BME280;26317;44.894;20.286;2022-10-16T14:10:39;101555.78;;;21.77;44.01
40612;BME280;26317;44.894;20.286;2022-10-16T14:13:23;101555.28;;;21.75;44.18